Dallas, Texas
Traffic Map
Current Weather Conditions
Dallas, Texas
Broken Clouds
Broken Clouds
27°
Feels Like: 29°
Wind Chill: 27° Ceiling: 15000
Heat Index: 29° Visibility: 10mi
Dew Point: 22° Wind: 6mph
Humidity: 76% Direction: 200° (SSW)
Pressure: 30.04in Gusts: 0mph
Raw Report DataKDAL 181353Z 20005KT 10SM FEW100 BKN150 BKN250 27/22 A3004 RMK AO2 SLP164 T02670222 $
Traffic Incident Summary
Active as of:
Severity:
Category:
InformationThere was an issue retrieving the traffic information for this location. Please try a different location or try again shortly.
Advertisements